sensor_id;sensor_type;location;lat;lon;timestamp;P1;durP1;ratioP1;P2;durP2;ratioP2
19877;SDS011;10101;52.204;9.910;2023-07-20T00:01:47;2.13;;;1.17;;
19877;SDS011;10101;52.204;9.910;2023-07-20T00:04:14;1.40;;;1.27;;
19877;SDS011;10101;52.204;9.910;2023-07-20T00:06:41;2.20;;;1.20;;
19877;SDS011;10101;52.204;9.910;2023-07-20T00:09:07;2.40;;;1.30;;
19877;SDS011;10101;52.204;9.910;2023-07-20T00:11:35;2.37;;;1.23;;
19877;SDS011;10101;52.204;9.910;2023-07-20T00:14:04;7.60;;;1.30;;
19877;SDS011;10101;52.204;9.910;2023-07-20T00:16:31;1.93;;;1.33;;
19877;SDS011;10101;52.204;9.910;2023-07-20T00:18:58;3.50;;;1.40;;
19877;SDS011;10101;52.204;9.910;2023-07-20T00:21:25;5.33;;;1.10;;
19877;SDS011;10101;52.204;9.910;2023-07-20T00:23:51;2.80;;;1.50;;
19877;SDS011;10101;52.204;9.910;2023-07-20T00:26:18;3.40;;;1.37;;
19877;SDS011;10101;52.204;9.910;2023-07-20T00:28:45;3.17;;;1.30;;
19877;SDS011;10101;52.204;9.910;2023-07-20T00:31:13;3.57;;;1.27;;
19877;SDS011;10101;52.204;9.910;2023-07-20T00:33:39;3.20;;;1.40;;
19877;SDS011;10101;52.204;9.910;2023-07-20T00:36:06;5.33;;;1.20;;
19877;SDS011;10101;52.204;9.910;2023-07-20T00:38:33;2.70;;;1.10;;
19877;SDS011;10101;52.204;9.910;2023-07-20T00:40:59;2.20;;;1.23;;
19877;SDS011;10101;52.204;9.910;2023-07-20T00:43:26;4.40;;;1.30;;
19877;SDS011;10101;52.204;9.910;2023-07-20T00:45:53;3.87;;;1.47;;
19877;SDS011;10101;52.204;9.910;2023-07-20T00:48:21;2.37;;;1.20;;
19877;SDS011;10101;52.204;9.910;2023-07-20T00:50:48;4.80;;;1.20;;
19877;SDS011;10101;52.204;9.910;2023-07-20T00:53:15;1.77;;;1.23;;
19877;SDS011;10101;52.204;9.910;2023-07-20T00:55:42;3.17;;;1.10;;
19877;SDS011;10101;52.204;9.910;2023-07-20T00:58:09;2.47;;;1.33;;
19877;SDS011;10101;52.204;9.910;2023-07-20T01:00:36;2.00;;;1.33;;
19877;SDS011;10101;52.204;9.910;2023-07-20T01:03:03;4.50;;;1.17;;
19877;SDS011;10101;52.204;9.910;2023-07-20T01:05:33;2.63;;;0.97;;
19877;SDS011;10101;52.204;9.910;2023-07-20T01:08:07;3.60;;;1.20;;
19877;SDS011;10101;52.204;9.910;2023-07-20T01:10:40;3.17;;;1.10;;
19877;SDS011;10101;52.204;9.910;2023-07-20T01:13:10;1.90;;;1.13;;
19877;SDS011;10101;52.204;9.910;2023-07-20T01:15:40;3.80;;;1.30;;
19877;SDS011;10101;52.204;9.910;2023-07-20T01:18:07;2.53;;;0.97;;
19877;SDS011;10101;52.204;9.910;2023-07-20T01:20:35;2.13;;;1.20;;
19877;SDS011;10101;52.204;9.910;2023-07-20T01:23:13;1.93;;;1.10;;
19877;SDS011;10101;52.204;9.910;2023-07-20T01:25:57;3.57;;;1.30;;
19877;SDS011;10101;52.204;9.910;2023-07-20T01:28:37;2.53;;;1.13;;
19877;SDS011;10101;52.204;9.910;2023-07-20T01:31:18;4.20;;;1.33;;
19877;SDS011;10101;52.204;9.910;2023-07-20T01:33:47;3.70;;;1.27;;
19877;SDS011;10101;52.204;9.910;2023-07-20T01:36:16;3.33;;;1.20;;
19877;SDS011;10101;52.204;9.910;2023-07-20T01:38:44;1.93;;;1.20;;
19877;SDS011;10101;52.204;9.910;2023-07-20T01:41:11;4.43;;;1.30;;
19877;SDS011;10101;52.204;9.910;2023-07-20T01:43:38;5.50;;;1.30;;
19877;SDS011;10101;52.204;9.910;2023-07-20T01:46:05;5.87;;;1.50;;
19877;SDS011;10101;52.204;9.910;2023-07-20T01:48:33;2.87;;;1.43;;
19877;SDS011;10101;52.204;9.910;2023-07-20T01:50:59;4.20;;;1.30;;
19877;SDS011;10101;52.204;9.910;2023-07-20T01:53:26;7.70;;;1.50;;
19877;SDS011;10101;52.204;9.910;2023-07-20T01:55:53;1.50;;;1.37;;
19877;SDS011;10101;52.204;9.910;2023-07-20T01:58:20;4.80;;;1.27;;
19877;SDS011;10101;52.204;9.910;2023-07-20T02:00:47;7.07;;;1.50;;
19877;SDS011;10101;52.204;9.910;2023-07-20T02:03:14;6.23;;;1.57;;
19877;SDS011;10101;52.204;9.910;2023-07-20T02:05:43;1.43;;;1.10;;
19877;SDS011;10101;52.204;9.910;2023-07-20T02:08:10;5.37;;;1.53;;
19877;SDS011;10101;52.204;9.910;2023-07-20T02:10:36;3.13;;;1.50;;
19877;SDS011;10101;52.204;9.910;2023-07-20T02:13:03;2.80;;;1.30;;
19877;SDS011;10101;52.204;9.910;2023-07-20T02:15:30;3.43;;;1.20;;
19877;SDS011;10101;52.204;9.910;2023-07-20T02:17:57;3.27;;;1.30;;
19877;SDS011;10101;52.204;9.910;2023-07-20T02:20:23;1.33;;;1.23;;
19877;SDS011;10101;52.204;9.910;2023-07-20T02:22:51;2.80;;;1.30;;
19877;SDS011;10101;52.204;9.910;2023-07-20T02:25:18;2.40;;;1.17;;
19877;SDS011;10101;52.204;9.910;2023-07-20T02:27:45;2.20;;;1.07;;
19877;SDS011;10101;52.204;9.910;2023-07-20T02:30:12;2.80;;;1.27;;
19877;SDS011;10101;52.204;9.910;2023-07-20T02:32:39;5.10;;;1.23;;
19877;SDS011;10101;52.204;9.910;2023-07-20T02:35:06;3.47;;;1.20;;
19877;SDS011;10101;52.204;9.910;2023-07-20T02:37:33;2.10;;;1.20;;
19877;SDS011;10101;52.204;9.910;2023-07-20T02:40:01;3.37;;;1.10;;
19877;SDS011;10101;52.204;9.910;2023-07-20T02:42:29;2.97;;;1.07;;
19877;SDS011;10101;52.204;9.910;2023-07-20T02:44:55;7.50;;;1.60;;
19877;SDS011;10101;52.204;9.910;2023-07-20T02:47:22;5.80;;;1.40;;
19877;SDS011;10101;52.204;9.910;2023-07-20T02:49:49;4.20;;;1.10;;
19877;SDS011;10101;52.204;9.910;2023-07-20T02:52:16;3.53;;;1.33;;
19877;SDS011;10101;52.204;9.910;2023-07-20T02:54:42;3.53;;;1.50;;
19877;SDS011;10101;52.204;9.910;2023-07-20T02:57:12;3.73;;;1.30;;
19877;SDS011;10101;52.204;9.910;2023-07-20T02:59:39;4.60;;;1.17;;
19877;SDS011;10101;52.204;9.910;2023-07-20T03:02:06;1.80;;;1.17;;
19877;SDS011;10101;52.204;9.910;2023-07-20T03:04:34;5.53;;;1.20;;
19877;SDS011;10101;52.204;9.910;2023-07-20T03:07:02;5.30;;;1.20;;
19877;SDS011;10101;52.204;9.910;2023-07-20T03:09:29;4.83;;;1.33;;
19877;SDS011;10101;52.204;9.910;2023-07-20T03:11:56;2.43;;;1.40;;
19877;SDS011;10101;52.204;9.910;2023-07-20T03:14:24;3.73;;;1.23;;
19877;SDS011;10101;52.204;9.910;2023-07-20T03:16:50;2.00;;;1.30;;
19877;SDS011;10101;52.204;9.910;2023-07-20T03:19:17;3.37;;;1.30;;
19877;SDS011;10101;52.204;9.910;2023-07-20T03:21:44;9.53;;;1.50;;
19877;SDS011;10101;52.204;9.910;2023-07-20T03:24:10;8.20;;;1.77;;
19877;SDS011;10101;52.204;9.910;2023-07-20T03:26:37;5.10;;;1.23;;
19877;SDS011;10101;52.204;9.910;2023-07-20T03:29:04;4.63;;;1.30;;
19877;SDS011;10101;52.204;9.910;2023-07-20T03:31:33;5.57;;;1.63;;
19877;SDS011;10101;52.204;9.910;2023-07-20T03:33:59;4.60;;;1.40;;
19877;SDS011;10101;52.204;9.910;2023-07-20T03:36:26;2.60;;;1.30;;
19877;SDS011;10101;52.204;9.910;2023-07-20T03:38:53;5.97;;;1.20;;
19877;SDS011;10101;52.204;9.910;2023-07-20T03:41:19;5.97;;;1.30;;
19877;SDS011;10101;52.204;9.910;2023-07-20T03:43:46;5.23;;;1.60;;
19877;SDS011;10101;52.204;9.910;2023-07-20T03:46:13;5.93;;;1.10;;
19877;SDS011;10101;52.204;9.910;2023-07-20T03:48:42;8.30;;;1.30;;
19877;SDS011;10101;52.204;9.910;2023-07-20T03:51:08;3.53;;;1.20;;
19877;SDS011;10101;52.204;9.910;2023-07-20T03:53:35;3.23;;;1.37;;
19877;SDS011;10101;52.204;9.910;2023-07-20T03:56:02;4.17;;;1.27;;
19877;SDS011;10101;52.204;9.910;2023-07-20T03:58:29;3.27;;;1.27;;
19877;SDS011;10101;52.204;9.910;2023-07-20T04:00:57;1.47;;;1.10;;
19877;SDS011;10101;52.204;9.910;2023-07-20T04:03:23;9.77;;;1.40;;
19877;SDS011;10101;52.204;9.910;2023-07-20T04:05:52;1.47;;;0.90;;
19877;SDS011;10101;52.204;9.910;2023-07-20T04:08:20;7.37;;;1.40;;
19877;SDS011;10101;52.204;9.910;2023-07-20T04:10:46;4.10;;;1.23;;
19877;SDS011;10101;52.204;9.910;2023-07-20T04:13:13;4.33;;;1.10;;
19877;SDS011;10101;52.204;9.910;2023-07-20T04:15:40;5.00;;;1.10;;
19877;SDS011;10101;52.204;9.910;2023-07-20T04:18:08;4.60;;;1.10;;
19877;SDS011;10101;52.204;9.910;2023-07-20T04:20:34;2.30;;;0.97;;
19877;SDS011;10101;52.204;9.910;2023-07-20T04:23:03;7.07;;;1.20;;
19877;SDS011;10101;52.204;9.910;2023-07-20T04:25:30;5.00;;;0.87;;
19877;SDS011;10101;52.204;9.910;2023-07-20T04:27:58;5.27;;;1.13;;
19877;SDS011;10101;52.204;9.910;2023-07-20T04:30:25;3.73;;;1.00;;
19877;SDS011;10101;52.204;9.910;2023-07-20T04:32:52;2.07;;;1.00;;
19877;SDS011;10101;52.204;9.910;2023-07-20T04:35:44;3.07;;;1.10;;
19877;SDS011;10101;52.204;9.910;2023-07-20T04:38:14;5.27;;;1.03;;
19877;SDS011;10101;52.204;9.910;2023-07-20T04:40:42;2.70;;;1.30;;
19877;SDS011;10101;52.204;9.910;2023-07-20T04:43:09;4.53;;;1.10;;
19877;SDS011;10101;52.204;9.910;2023-07-20T04:45:36;2.03;;;1.37;;
19877;SDS011;10101;52.204;9.910;2023-07-20T04:48:04;4.00;;;1.20;;
19877;SDS011;10101;52.204;9.910;2023-07-20T04:50:33;4.00;;;1.30;;
19877;SDS011;10101;52.204;9.910;2023-07-20T04:52:59;11.17;;;1.77;;
19877;SDS011;10101;52.204;9.910;2023-07-20T04:55:28;2.40;;;1.43;;
19877;SDS011;10101;52.204;9.910;2023-07-20T04:57:55;7.10;;;1.40;;
19877;SDS011;10101;52.204;9.910;2023-07-20T05:00:21;8.43;;;1.33;;
19877;SDS011;10101;52.204;9.910;2023-07-20T05:02:48;5.13;;;1.53;;
19877;SDS011;10101;52.204;9.910;2023-07-20T05:05:15;7.10;;;1.37;;
19877;SDS011;10101;52.204;9.910;2023-07-20T05:07:42;2.97;;;1.23;;
19877;SDS011;10101;52.204;9.910;2023-07-20T05:10:09;4.53;;;1.33;;
19877;SDS011;10101;52.204;9.910;2023-07-20T05:12:37;6.30;;;1.30;;
19877;SDS011;10101;52.204;9.910;2023-07-20T05:15:04;4.30;;;1.30;;
19877;SDS011;10101;52.204;9.910;2023-07-20T05:17:31;3.37;;;0.97;;
19877;SDS011;10101;52.204;9.910;2023-07-20T05:19:58;2.27;;;1.03;;
19877;SDS011;10101;52.204;9.910;2023-07-20T05:22:25;1.30;;;0.97;;
19877;SDS011;10101;52.204;9.910;2023-07-20T05:24:52;2.63;;;1.03;;
19877;SDS011;10101;52.204;9.910;2023-07-20T05:27:18;0.90;;;0.90;;
19877;SDS011;10101;52.204;9.910;2023-07-20T05:29:46;2.40;;;1.07;;
19877;SDS011;10101;52.204;9.910;2023-07-20T05:32:13;0.80;;;0.80;;
19877;SDS011;10101;52.204;9.910;2023-07-20T05:34:40;1.67;;;1.17;;
19877;SDS011;10101;52.204;9.910;2023-07-20T05:37:06;2.17;;;0.83;;
19877;SDS011;10101;52.204;9.910;2023-07-20T05:39:33;1.43;;;0.80;;
19877;SDS011;10101;52.204;9.910;2023-07-20T05:42:00;0.80;;;0.80;;
19877;SDS011;10101;52.204;9.910;2023-07-20T05:44:27;3.10;;;0.80;;
19877;SDS011;10101;52.204;9.910;2023-07-20T05:46:55;2.87;;;0.90;;
19877;SDS011;10101;52.204;9.910;2023-07-20T05:49:21;0.70;;;0.70;;
19877;SDS011;10101;52.204;9.910;2023-07-20T05:51:48;0.70;;;0.70;;
19877;SDS011;10101;52.204;9.910;2023-07-20T05:54:15;1.87;;;0.90;;
19877;SDS011;10101;52.204;9.910;2023-07-20T05:56:41;2.93;;;0.90;;
19877;SDS011;10101;52.204;9.910;2023-07-20T05:59:08;1.80;;;0.73;;
19877;SDS011;10101;52.204;9.910;2023-07-20T06:01:35;0.80;;;0.80;;
19877;SDS011;10101;52.204;9.910;2023-07-20T06:04:03;0.90;;;0.80;;
19877;SDS011;10101;52.204;9.910;2023-07-20T06:06:30;1.63;;;0.80;;
19877;SDS011;10101;52.204;9.910;2023-07-20T06:08:56;1.83;;;1.10;;
19877;SDS011;10101;52.204;9.910;2023-07-20T06:11:23;3.53;;;1.20;;
19877;SDS011;10101;52.204;9.910;2023-07-20T06:13:50;1.53;;;1.43;;
19877;SDS011;10101;52.204;9.910;2023-07-20T06:16:16;3.27;;;1.30;;
19877;SDS011;10101;52.204;9.910;2023-07-20T06:18:43;2.13;;;1.50;;
19877;SDS011;10101;52.204;9.910;2023-07-20T06:21:11;1.67;;;1.57;;
19877;SDS011;10101;52.204;9.910;2023-07-20T06:23:38;2.33;;;1.70;;
19877;SDS011;10101;52.204;9.910;2023-07-20T06:26:05;2.03;;;1.53;;
19877;SDS011;10101;52.204;9.910;2023-07-20T06:28:32;3.37;;;1.83;;
19877;SDS011;10101;52.204;9.910;2023-07-20T06:30:59;1.60;;;1.50;;
19877;SDS011;10101;52.204;9.910;2023-07-20T06:33:26;2.47;;;1.83;;
19877;SDS011;10101;52.204;9.910;2023-07-20T06:35:53;1.97;;;1.77;;
19877;SDS011;10101;52.204;9.910;2023-07-20T06:38:23;5.47;;;2.00;;
19877;SDS011;10101;52.204;9.910;2023-07-20T06:40:50;2.60;;;1.80;;
19877;SDS011;10101;52.204;9.910;2023-07-20T06:43:17;2.40;;;1.73;;
19877;SDS011;10101;52.204;9.910;2023-07-20T06:45:44;2.97;;;1.90;;
19877;SDS011;10101;52.204;9.910;2023-07-20T06:48:16;1.97;;;1.80;;
19877;SDS011;10101;52.204;9.910;2023-07-20T06:50:43;3.57;;;1.90;;
19877;SDS011;10101;52.204;9.910;2023-07-20T06:53:10;2.10;;;1.70;;
19877;SDS011;10101;52.204;9.910;2023-07-20T06:55:38;2.53;;;1.60;;
19877;SDS011;10101;52.204;9.910;2023-07-20T06:58:04;3.13;;;1.80;;
19877;SDS011;10101;52.204;9.910;2023-07-20T07:00:31;2.40;;;1.40;;
19877;SDS011;10101;52.204;9.910;2023-07-20T07:02:58;2.90;;;1.67;;
19877;SDS011;10101;52.204;9.910;2023-07-20T07:05:25;2.50;;;1.57;;
19877;SDS011;10101;52.204;9.910;2023-07-20T07:07:51;3.23;;;1.37;;
19877;SDS011;10101;52.204;9.910;2023-07-20T07:10:18;4.80;;;1.70;;
19877;SDS011;10101;52.204;9.910;2023-07-20T07:12:46;2.07;;;1.40;;
19877;SDS011;10101;52.204;9.910;2023-07-20T07:15:13;1.63;;;1.50;;
19877;SDS011;10101;52.204;9.910;2023-07-20T07:17:39;1.40;;;1.30;;
19877;SDS011;10101;52.204;9.910;2023-07-20T07:20:08;2.53;;;1.17;;
19877;SDS011;10101;52.204;9.910;2023-07-20T07:22:35;1.53;;;1.43;;
19877;SDS011;10101;52.204;9.910;2023-07-20T07:25:02;1.43;;;1.33;;
19877;SDS011;10101;52.204;9.910;2023-07-20T07:27:29;2.97;;;1.47;;
19877;SDS011;10101;52.204;9.910;2023-07-20T07:29:57;1.73;;;1.63;;
19877;SDS011;10101;52.204;9.910;2023-07-20T07:32:24;3.73;;;1.70;;
19877;SDS011;10101;52.204;9.910;2023-07-20T07:34:51;3.33;;;1.67;;
19877;SDS011;10101;52.204;9.910;2023-07-20T07:37:18;1.53;;;1.43;;
19877;SDS011;10101;52.204;9.910;2023-07-20T07:39:45;1.67;;;1.50;;
19877;SDS011;10101;52.204;9.910;2023-07-20T07:42:12;2.00;;;1.83;;
19877;SDS011;10101;52.204;9.910;2023-07-20T07:44:39;2.93;;;1.57;;
19877;SDS011;10101;52.204;9.910;2023-07-20T07:47:07;1.70;;;1.60;;
19877;SDS011;10101;52.204;9.910;2023-07-20T07:49:34;2.47;;;2.07;;
19877;SDS011;10101;52.204;9.910;2023-07-20T07:52:01;3.13;;;2.00;;
19877;SDS011;10101;52.204;9.910;2023-07-20T07:54:28;2.20;;;2.00;;
19877;SDS011;10101;52.204;9.910;2023-07-20T07:56:55;2.00;;;1.77;;
19877;SDS011;10101;52.204;9.910;2023-07-20T07:59:22;3.23;;;1.83;;
19877;SDS011;10101;52.204;9.910;2023-07-20T08:01:49;2.30;;;1.80;;
19877;SDS011;10101;52.204;9.910;2023-07-20T08:04:17;2.00;;;1.50;;
19877;SDS011;10101;52.204;9.910;2023-07-20T08:06:44;3.37;;;1.50;;
19877;SDS011;10101;52.204;9.910;2023-07-20T08:09:11;1.73;;;1.63;;
19877;SDS011;10101;52.204;9.910;2023-07-20T08:11:38;2.33;;;1.63;;
19877;SDS011;10101;52.204;9.910;2023-07-20T08:14:05;1.80;;;1.63;;
19877;SDS011;10101;52.204;9.910;2023-07-20T08:16:32;1.47;;;1.33;;
19877;SDS011;10101;52.204;9.910;2023-07-20T08:18:59;1.53;;;1.43;;
19877;SDS011;10101;52.204;9.910;2023-07-20T08:21:28;2.03;;;1.30;;
19877;SDS011;10101;52.204;9.910;2023-07-20T08:23:55;1.50;;;1.20;;
19877;SDS011;10101;52.204;9.910;2023-07-20T08:26:22;1.27;;;1.17;;
19877;SDS011;10101;52.204;9.910;2023-07-20T08:28:49;2.23;;;1.10;;
19877;SDS011;10101;52.204;9.910;2023-07-20T08:31:16;2.50;;;1.30;;
19877;SDS011;10101;52.204;9.910;2023-07-20T08:33:43;1.90;;;1.13;;
19877;SDS011;10101;52.204;9.910;2023-07-20T08:36:09;1.20;;;1.00;;
19877;SDS011;10101;52.204;9.910;2023-07-20T08:38:37;1.17;;;1.07;;
19877;SDS011;10101;52.204;9.910;2023-07-20T08:41:04;1.10;;;1.00;;
19877;SDS011;10101;52.204;9.910;2023-07-20T08:43:31;1.57;;;1.07;;
19877;SDS011;10101;52.204;9.910;2023-07-20T08:45:59;1.10;;;0.97;;
19877;SDS011;10101;52.204;9.910;2023-07-20T08:48:27;1.33;;;1.23;;
19877;SDS011;10101;52.204;9.910;2023-07-20T08:50:56;1.23;;;1.13;;
19877;SDS011;10101;52.204;9.910;2023-07-20T08:53:25;1.60;;;1.50;;
19877;SDS011;10101;52.204;9.910;2023-07-20T08:55:54;2.13;;;1.80;;
19877;SDS011;10101;52.204;9.910;2023-07-20T08:58:21;2.17;;;1.70;;
19877;SDS011;10101;52.204;9.910;2023-07-20T09:00:51;2.23;;;1.60;;
19877;SDS011;10101;52.204;9.910;2023-07-20T09:03:19;1.50;;;1.40;;
19877;SDS011;10101;52.204;9.910;2023-07-20T09:05:46;3.70;;;1.30;;
19877;SDS011;10101;52.204;9.910;2023-07-20T09:08:13;1.43;;;1.33;;
19877;SDS011;10101;52.204;9.910;2023-07-20T09:10:39;0.90;;;0.90;;
19877;SDS011;10101;52.204;9.910;2023-07-20T09:13:07;0.90;;;0.90;;
19877;SDS011;10101;52.204;9.910;2023-07-20T09:15:34;1.40;;;1.30;;
19877;SDS011;10101;52.204;9.910;2023-07-20T09:18:01;2.40;;;1.03;;
19877;SDS011;10101;52.204;9.910;2023-07-20T09:20:30;1.10;;;1.00;;
19877;SDS011;10101;52.204;9.910;2023-07-20T09:22:58;1.47;;;0.83;;
19877;SDS011;10101;52.204;9.910;2023-07-20T09:25:25;1.47;;;1.10;;
19877;SDS011;10101;52.204;9.910;2023-07-20T09:27:54;1.77;;;1.20;;
19877;SDS011;10101;52.204;9.910;2023-07-20T09:30:24;0.83;;;0.83;;
19877;SDS011;10101;52.204;9.910;2023-07-20T09:32:52;0.97;;;0.77;;
19877;SDS011;10101;52.204;9.910;2023-07-20T09:35:19;3.77;;;0.90;;
19877;SDS011;10101;52.204;9.910;2023-07-20T09:37:47;2.13;;;0.90;;
19877;SDS011;10101;52.204;9.910;2023-07-20T09:40:17;0.70;;;0.70;;
19877;SDS011;10101;52.204;9.910;2023-07-20T09:42:44;1.63;;;1.00;;
19877;SDS011;10101;52.204;9.910;2023-07-20T09:45:11;0.80;;;0.80;;
19877;SDS011;10101;52.204;9.910;2023-07-20T09:47:40;0.60;;;0.60;;
19877;SDS011;10101;52.204;9.910;2023-07-20T09:50:07;1.20;;;0.80;;
19877;SDS011;10101;52.204;9.910;2023-07-20T09:52:37;2.93;;;0.87;;
19877;SDS011;10101;52.204;9.910;2023-07-20T09:55:06;1.40;;;0.90;;
19877;SDS011;10101;52.204;9.910;2023-07-20T09:57:33;1.37;;;0.80;;
19877;SDS011;10101;52.204;9.910;2023-07-20T10:00:02;2.00;;;0.80;;
19877;SDS011;10101;52.204;9.910;2023-07-20T10:02:33;1.47;;;0.80;;
19877;SDS011;10101;52.204;9.910;2023-07-20T10:05:04;0.73;;;0.73;;
19877;SDS011;10101;52.204;9.910;2023-07-20T10:07:35;0.70;;;0.60;;
19877;SDS011;10101;52.204;9.910;2023-07-20T10:10:06;0.60;;;0.50;;
19877;SDS011;10101;52.204;9.910;2023-07-20T10:12:35;1.20;;;0.67;;
19877;SDS011;10101;52.204;9.910;2023-07-20T10:15:06;0.97;;;0.67;;
19877;SDS011;10101;52.204;9.910;2023-07-20T10:17:40;1.17;;;0.70;;
19877;SDS011;10101;52.204;9.910;2023-07-20T10:20:16;2.13;;;0.80;;
19877;SDS011;10101;52.204;9.910;2023-07-20T10:22:44;1.13;;;0.80;;
19877;SDS011;10101;52.204;9.910;2023-07-20T10:25:13;0.90;;;0.70;;
19877;SDS011;10101;52.204;9.910;2023-07-20T10:27:40;0.83;;;0.50;;
19877;SDS011;10101;52.204;9.910;2023-07-20T10:30:08;0.70;;;0.70;;
19877;SDS011;10101;52.204;9.910;2023-07-20T10:32:35;1.63;;;0.63;;
19877;SDS011;10101;52.204;9.910;2023-07-20T10:35:06;0.67;;;0.63;;
19877;SDS011;10101;52.204;9.910;2023-07-20T10:37:47;0.60;;;0.60;;
19877;SDS011;10101;52.204;9.910;2023-07-20T10:40:25;0.70;;;0.70;;
19877;SDS011;10101;52.204;9.910;2023-07-20T10:42:56;0.70;;;0.70;;
19877;SDS011;10101;52.204;9.910;2023-07-20T10:45:32;0.63;;;0.63;;
19877;SDS011;10101;52.204;9.910;2023-07-20T10:48:06;0.67;;;0.60;;
19877;SDS011;10101;52.204;9.910;2023-07-20T10:50:38;0.50;;;0.50;;
19877;SDS011;10101;52.204;9.910;2023-07-20T10:53:14;1.13;;;0.63;;
19877;SDS011;10101;52.204;9.910;2023-07-20T10:55:42;0.50;;;0.50;;
19877;SDS011;10101;52.204;9.910;2023-07-20T10:58:11;0.50;;;0.50;;
19877;SDS011;10101;52.204;9.910;2023-07-20T11:00:54;0.70;;;0.70;;
19877;SDS011;10101;52.204;9.910;2023-07-20T11:03:29;0.67;;;0.57;;
19877;SDS011;10101;52.204;9.910;2023-07-20T11:05:57;1.03;;;0.60;;
19877;SDS011;10101;52.204;9.910;2023-07-20T11:08:39;0.67;;;0.50;;
19877;SDS011;10101;52.204;9.910;2023-07-20T11:11:23;0.50;;;0.50;;
19877;SDS011;10101;52.204;9.910;2023-07-20T11:13:54;0.60;;;0.60;;
19877;SDS011;10101;52.204;9.910;2023-07-20T11:16:32;1.13;;;0.53;;
19877;SDS011;10101;52.204;9.910;2023-07-20T11:19:03;3.70;;;0.60;;
19877;SDS011;10101;52.204;9.910;2023-07-20T11:21:35;1.07;;;0.60;;
19877;SDS011;10101;52.204;9.910;2023-07-20T11:24:05;0.60;;;0.60;;
19877;SDS011;10101;52.204;9.910;2023-07-20T11:26:40;0.60;;;0.60;;
19877;SDS011;10101;52.204;9.910;2023-07-20T11:29:11;0.60;;;0.60;;
19877;SDS011;10101;52.204;9.910;2023-07-20T11:31:38;1.40;;;0.50;;
19877;SDS011;10101;52.204;9.910;2023-07-20T11:34:06;0.67;;;0.40;;
19877;SDS011;10101;52.204;9.910;2023-07-20T11:36:34;0.33;;;0.30;;
19877;SDS011;10101;52.204;9.910;2023-07-20T11:39:00;0.60;;;0.53;;
19877;SDS011;10101;52.204;9.910;2023-07-20T11:41:31;0.77;;;0.50;;
19877;SDS011;10101;52.204;9.910;2023-07-20T11:43:58;0.73;;;0.40;;
19877;SDS011;10101;52.204;9.910;2023-07-20T11:46:25;0.50;;;0.50;;
19877;SDS011;10101;52.204;9.910;2023-07-20T11:48:57;1.70;;;0.50;;
19877;SDS011;10101;52.204;9.910;2023-07-20T11:51:26;1.50;;;0.57;;
19877;SDS011;10101;52.204;9.910;2023-07-20T11:53:53;2.33;;;0.60;;
19877;SDS011;10101;52.204;9.910;2023-07-20T11:56:20;1.60;;;0.50;;
19877;SDS011;10101;52.204;9.910;2023-07-20T11:58:50;0.70;;;0.60;;
19877;SDS011;10101;52.204;9.910;2023-07-20T12:01:20;1.23;;;0.53;;
19877;SDS011;10101;52.204;9.910;2023-07-20T12:03:47;0.77;;;0.60;;
19877;SDS011;10101;52.204;9.910;2023-07-20T12:06:15;0.50;;;0.50;;
19877;SDS011;10101;52.204;9.910;2023-07-20T12:08:42;1.37;;;0.47;;
19877;SDS011;10101;52.204;9.910;2023-07-20T12:11:10;1.03;;;0.50;;
19877;SDS011;10101;52.204;9.910;2023-07-20T12:13:37;2.33;;;0.50;;
19877;SDS011;10101;52.204;9.910;2023-07-20T12:16:12;1.23;;;0.50;;
19877;SDS011;10101;52.204;9.910;2023-07-20T12:18:40;0.57;;;0.57;;
19877;SDS011;10101;52.204;9.910;2023-07-20T12:21:07;0.80;;;0.70;;
19877;SDS011;10101;52.204;9.910;2023-07-20T12:23:35;0.90;;;0.60;;
19877;SDS011;10101;52.204;9.910;2023-07-20T12:26:03;0.67;;;0.67;;
19877;SDS011;10101;52.204;9.910;2023-07-20T12:28:31;2.63;;;0.77;;
19877;SDS011;10101;52.204;9.910;2023-07-20T12:30:58;1.57;;;0.80;;
19877;SDS011;10101;52.204;9.910;2023-07-20T12:33:26;0.97;;;0.63;;
19877;SDS011;10101;52.204;9.910;2023-07-20T12:35:53;1.03;;;0.63;;
19877;SDS011;10101;52.204;9.910;2023-07-20T12:38:21;1.20;;;0.70;;
19877;SDS011;10101;52.204;9.910;2023-07-20T12:40:49;0.60;;;0.60;;
19877;SDS011;10101;52.204;9.910;2023-07-20T12:43:16;0.60;;;0.60;;
19877;SDS011;10101;52.204;9.910;2023-07-20T12:45:42;0.57;;;0.57;;
19877;SDS011;10101;52.204;9.910;2023-07-20T12:48:09;0.50;;;0.50;;
19877;SDS011;10101;52.204;9.910;2023-07-20T12:50:37;0.93;;;0.50;;
19877;SDS011;10101;52.204;9.910;2023-07-20T12:53:04;0.90;;;0.47;;
19877;SDS011;10101;52.204;9.910;2023-07-20T12:55:31;1.90;;;0.40;;
19877;SDS011;10101;52.204;9.910;2023-07-20T12:57:58;1.37;;;0.50;;
19877;SDS011;10101;52.204;9.910;2023-07-20T13:00:25;0.50;;;0.50;;
19877;SDS011;10101;52.204;9.910;2023-07-20T13:02:51;0.80;;;0.60;;
19877;SDS011;10101;52.204;9.910;2023-07-20T13:05:18;0.87;;;0.50;;
19877;SDS011;10101;52.204;9.910;2023-07-20T13:07:46;0.60;;;0.57;;
19877;SDS011;10101;52.204;9.910;2023-07-20T13:10:13;0.53;;;0.53;;
19877;SDS011;10101;52.204;9.910;2023-07-20T13:12:40;1.48;;;0.60;;
19877;SDS011;10101;52.204;9.910;2023-07-20T13:15:07;2.37;;;0.67;;
19877;SDS011;10101;52.204;9.910;2023-07-20T13:17:35;0.68;;;0.60;;
19877;SDS011;10101;52.204;9.910;2023-07-20T13:20:03;0.65;;;0.60;;
19877;SDS011;10101;52.204;9.910;2023-07-20T13:22:32;2.53;;;0.60;;
19877;SDS011;10101;52.204;9.910;2023-07-20T13:25:01;1.05;;;0.60;;
19877;SDS011;10101;52.204;9.910;2023-07-20T13:27:28;1.00;;;0.50;;
19877;SDS011;10101;52.204;9.910;2023-07-20T13:29:55;2.27;;;0.87;;
19877;SDS011;10101;52.204;9.910;2023-07-20T13:32:22;0.70;;;0.50;;
19877;SDS011;10101;52.204;9.910;2023-07-20T13:34:49;0.50;;;0.37;;
19877;SDS011;10101;52.204;9.910;2023-07-20T13:37:16;2.00;;;0.70;;
19877;SDS011;10101;52.204;9.910;2023-07-20T13:39:42;2.77;;;0.50;;
19877;SDS011;10101;52.204;9.910;2023-07-20T13:42:11;1.43;;;0.50;;
19877;SDS011;10101;52.204;9.910;2023-07-20T13:44:37;0.83;;;0.60;;
19877;SDS011;10101;52.204;9.910;2023-07-20T13:47:05;0.50;;;0.50;;
19877;SDS011;10101;52.204;9.910;2023-07-20T13:49:32;1.50;;;0.40;;
19877;SDS011;10101;52.204;9.910;2023-07-20T13:51:58;0.93;;;0.50;;
19877;SDS011;10101;52.204;9.910;2023-07-20T13:54:25;0.50;;;0.50;;
19877;SDS011;10101;52.204;9.910;2023-07-20T13:56:52;0.50;;;0.50;;
19877;SDS011;10101;52.204;9.910;2023-07-20T13:59:20;0.43;;;0.43;;
19877;SDS011;10101;52.204;9.910;2023-07-20T14:01:47;0.50;;;0.50;;
19877;SDS011;10101;52.204;9.910;2023-07-20T14:04:14;1.70;;;0.70;;
19877;SDS011;10101;52.204;9.910;2023-07-20T14:06:42;0.97;;;0.40;;
19877;SDS011;10101;52.204;9.910;2023-07-20T14:09:08;1.07;;;0.50;;
19877;SDS011;10101;52.204;9.910;2023-07-20T14:11:35;2.33;;;0.50;;
19877;SDS011;10101;52.204;9.910;2023-07-20T14:14:02;0.60;;;0.53;;
19877;SDS011;10101;52.204;9.910;2023-07-20T14:16:30;0.50;;;0.50;;
19877;SDS011;10101;52.204;9.910;2023-07-20T14:18:57;0.93;;;0.47;;
19877;SDS011;10101;52.204;9.910;2023-07-20T14:21:24;1.70;;;0.57;;
19877;SDS011;10101;52.204;9.910;2023-07-20T14:23:51;1.03;;;0.60;;
19877;SDS011;10101;52.204;9.910;2023-07-20T14:26:18;0.70;;;0.50;;
19877;SDS011;10101;52.204;9.910;2023-07-20T14:28:45;2.63;;;0.83;;
19877;SDS011;10101;52.204;9.910;2023-07-20T14:31:12;1.43;;;0.40;;
19877;SDS011;10101;52.204;9.910;2023-07-20T14:33:40;0.57;;;0.50;;
19877;SDS011;10101;52.204;9.910;2023-07-20T14:36:07;1.03;;;0.50;;
19877;SDS011;10101;52.204;9.910;2023-07-20T14:38:33;1.70;;;0.70;;
19877;SDS011;10101;52.204;9.910;2023-07-20T14:41:00;2.57;;;0.67;;
19877;SDS011;10101;52.204;9.910;2023-07-20T14:43:27;0.60;;;0.50;;
19877;SDS011;10101;52.204;9.910;2023-07-20T14:45:54;0.70;;;0.40;;
19877;SDS011;10101;52.204;9.910;2023-07-20T14:48:21;2.78;;;0.60;;
19877;SDS011;10101;52.204;9.910;2023-07-20T14:50:49;1.10;;;0.55;;
19877;SDS011;10101;52.204;9.910;2023-07-20T14:53:16;0.88;;;0.65;;